createdAt,value
2019-01-08T00:00:10.743Z,1012.04
2019-01-08T00:01:10.732Z,1012.07
2019-01-08T00:02:10.744Z,1012.07
2019-01-08T00:03:10.711Z,1012.06
2019-01-08T00:04:10.702Z,1012.02
2019-01-08T00:05:10.688Z,1011.97
2019-01-08T00:06:10.688Z,1011.94
2019-01-08T00:07:10.690Z,1011.89
2019-01-08T00:08:10.659Z,1011.94
2019-01-08T00:09:10.646Z,1011.93
2019-01-08T00:10:10.634Z,1011.88
2019-01-08T00:11:10.623Z,1011.89
2019-01-08T00:12:10.633Z,1011.91
2019-01-08T00:13:10.608Z,1011.90
2019-01-08T00:14:10.590Z,1011.88
2019-01-08T00:15:10.578Z,1011.84
2019-01-08T00:16:10.569Z,1011.77
2019-01-08T00:17:10.580Z,1011.75
2019-01-08T00:18:10.545Z,1011.76
2019-01-08T00:19:10.628Z,1011.75
2019-01-08T00:20:10.527Z,1011.70
2019-01-08T00:21:10.516Z,1011.63
2019-01-08T00:22:10.533Z,1011.70
2019-01-08T00:23:10.491Z,1011.64
2019-01-08T00:24:10.480Z,1011.68
2019-01-08T00:25:10.469Z,1011.67
2019-01-08T00:26:10.463Z,1011.67
2019-01-08T00:27:10.449Z,1011.62
2019-01-08T00:28:10.461Z,1011.60
2019-01-08T00:29:10.425Z,1011.57
2019-01-08T00:30:10.415Z,1011.57
2019-01-08T00:31:10.403Z,1011.49
2019-01-08T00:32:10.393Z,1011.55
2019-01-08T00:33:10.405Z,1011.51
2019-01-08T00:34:10.375Z,1011.52
2019-01-08T00:35:10.361Z,1011.57
2019-01-08T00:36:10.349Z,1011.56
2019-01-08T00:37:10.337Z,1011.61
2019-01-08T00:38:10.347Z,1011.57
2019-01-08T00:39:10.315Z,1011.53
2019-01-08T00:40:10.303Z,1011.63
2019-01-08T00:41:10.292Z,1011.61
2019-01-08T00:42:10.316Z,1011.59
2019-01-08T00:43:10.296Z,1011.60
2019-01-08T00:44:10.261Z,1011.56
2019-01-08T00:45:10.250Z,1011.48
2019-01-08T00:46:10.239Z,1011.43
2019-01-08T00:47:10.236Z,1011.46
2019-01-08T00:48:10.241Z,1011.43
2019-01-08T00:49:10.211Z,1011.40
2019-01-08T00:50:10.196Z,1011.32
2019-01-08T00:51:10.185Z,1011.31
2019-01-08T00:52:10.172Z,1011.25
2019-01-08T00:53:10.185Z,1011.29
2019-01-08T00:54:10.151Z,1011.26
2019-01-08T00:55:10.139Z,1011.27
2019-01-08T00:56:10.128Z,1011.35
2019-01-08T00:57:10.118Z,1011.28
2019-01-08T00:58:10.130Z,1011.28
2019-01-08T00:59:10.096Z,1011.33
2019-01-08T01:00:10.087Z,1011.27
2019-01-08T01:01:10.078Z,1011.19
2019-01-08T01:02:10.065Z,1011.21
2019-01-08T01:03:10.083Z,1011.16
2019-01-08T01:04:10.107Z,1011.10
2019-01-08T01:05:10.031Z,1011.14
2019-01-08T01:06:10.018Z,1011.11
2019-01-08T01:07:10.020Z,1011.11
2019-01-08T01:08:09.999Z,1011.10
2019-01-08T01:09:10.023Z,1011.02
2019-01-08T01:10:09.977Z,1011.04
2019-01-08T01:11:09.963Z,1010.97
2019-01-08T01:12:09.952Z,1010.95
2019-01-08T01:13:09.941Z,1011.00
2019-01-08T01:14:09.960Z,1010.95
2019-01-08T01:15:09.919Z,1010.93
2019-01-08T01:16:09.914Z,1010.95
2019-01-08T01:17:09.899Z,1010.93
2019-01-08T01:18:09.886Z,1010.97
2019-01-08T01:19:09.901Z,1010.87
2019-01-08T01:20:09.866Z,1010.95
2019-01-08T01:21:09.868Z,1010.97
2019-01-08T01:22:09.844Z,1010.87
2019-01-08T01:23:09.831Z,1010.88
2019-01-08T01:24:09.854Z,1010.90
2019-01-08T01:25:09.808Z,1010.89
2019-01-08T01:26:09.803Z,1010.82
2019-01-08T01:27:09.787Z,1010.84
2019-01-08T01:28:09.818Z,1010.84
2019-01-08T01:29:09.766Z,1010.97
2019-01-08T01:30:09.778Z,1010.98
2019-01-08T01:31:09.745Z,1011.09
2019-01-08T01:32:09.735Z,1011.10
2019-01-08T01:33:09.730Z,1011.17
2019-01-08T01:34:09.710Z,1011.21
2019-01-08T01:35:09.721Z,1011.32
2019-01-08T01:36:09.692Z,1011.29
2019-01-08T01:37:09.678Z,1011.26
2019-01-08T01:38:09.667Z,1011.39
2019-01-08T01:39:09.680Z,1011.34
2019-01-08T01:40:09.667Z,1011.29
2019-01-08T01:41:09.633Z,1011.28
2019-01-08T01:42:09.626Z,1011.31
2019-01-08T01:43:09.614Z,1011.33
2019-01-08T01:44:09.600Z,1011.24
2019-01-08T01:45:09.626Z,1011.25
2019-01-08T01:46:09.581Z,1011.23
2019-01-08T01:47:09.569Z,1011.30
2019-01-08T01:48:09.555Z,1011.30
2019-01-08T01:49:09.545Z,1011.25
2019-01-08T01:50:09.578Z,1011.18
2019-01-08T01:51:09.524Z,1011.19
2019-01-08T01:52:09.514Z,1011.12
2019-01-08T01:53:09.504Z,1011.11
2019-01-08T01:54:09.491Z,1011.15
2019-01-08T01:55:09.481Z,1011.20
2019-01-08T01:56:09.495Z,1011.16
2019-01-08T01:57:09.461Z,1011.14
2019-01-08T01:58:09.449Z,1011.26
2019-01-08T01:59:09.440Z,1011.26
2019-01-08T02:00:09.426Z,1011.35
2019-01-08T02:01:09.440Z,1011.28
2019-01-08T02:02:09.402Z,1011.30
2019-01-08T02:03:09.397Z,1011.40
2019-01-08T02:04:09.382Z,1011.37
2019-01-08T02:05:09.370Z,1011.30
2019-01-08T02:06:09.383Z,1011.31
2019-01-08T02:07:09.356Z,1011.30
2019-01-08T02:08:09.340Z,1011.28
2019-01-08T02:09:09.325Z,1011.28
2019-01-08T02:10:09.315Z,1011.25
2019-01-08T02:11:09.328Z,1011.23
2019-01-08T02:12:09.294Z,1011.21
2019-01-08T02:13:09.282Z,1011.23
2019-01-08T02:14:09.279Z,1011.28
2019-01-08T02:15:09.263Z,1011.23
2019-01-08T02:16:09.272Z,1011.33
2019-01-08T02:17:09.238Z,1011.36
2019-01-08T02:18:09.230Z,1011.33
2019-01-08T02:19:09.226Z,1011.28
2019-01-08T02:20:09.212Z,1011.31
2019-01-08T02:21:09.221Z,1011.34
2019-01-08T02:22:09.215Z,1011.33
2019-01-08T02:23:09.174Z,1011.27
2019-01-08T02:24:09.162Z,1011.31
2019-01-08T02:25:09.150Z,1011.33
2019-01-08T02:26:09.179Z,1011.34
2019-01-08T02:27:09.131Z,1011.32
2019-01-08T02:28:09.119Z,1011.34
2019-01-08T02:29:16.329Z,1011.32
2019-01-08T02:30:09.098Z,1011.30
2019-01-08T02:31:09.085Z,1011.34
2019-01-08T02:32:09.106Z,1011.30
2019-01-08T02:33:09.090Z,1011.34
2019-01-08T02:34:09.051Z,1011.36
2019-01-08T02:35:09.042Z,1011.35
2019-01-08T02:36:09.031Z,1011.31
2019-01-08T02:37:09.044Z,1011.34
2019-01-08T02:38:09.030Z,1011.29
2019-01-08T02:39:09.004Z,1011.31
2019-01-08T02:40:08.996Z,1011.35
2019-01-08T02:41:08.987Z,1011.31
2019-01-08T02:42:08.987Z,1011.33
2019-01-08T02:43:08.953Z,1011.35
2019-01-08T02:44:09.129Z,1011.29
2019-01-08T02:45:08.937Z,1011.26
2019-01-08T02:46:09.124Z,1011.29
2019-01-08T02:47:08.940Z,1011.28
2019-01-08T02:48:08.899Z,1011.32
2019-01-08T02:49:08.928Z,1011.24
2019-01-08T02:50:08.876Z,1011.19
2019-01-08T02:51:08.867Z,1011.19
2019-01-08T02:52:08.857Z,1011.18
2019-01-08T02:53:08.872Z,1011.20
2019-01-08T02:54:08.832Z,1011.20
2019-01-08T02:55:08.827Z,1011.20
2019-01-08T02:56:08.822Z,1011.20
2019-01-08T02:57:08.798Z,1011.22
2019-01-08T02:58:08.813Z,1011.20
2019-01-08T02:59:08.778Z,1011.17
2019-01-08T03:00:08.777Z,1011.17
2019-01-08T03:01:08.755Z,1011.18
2019-01-08T03:02:08.745Z,1011.15
2019-01-08T03:03:08.756Z,1011.23
2019-01-08T03:04:08.722Z,1011.20
2019-01-08T03:05:08.714Z,1011.15
2019-01-08T03:06:08.751Z,1011.09
2019-01-08T03:07:08.689Z,1011.09
2019-01-08T03:08:08.705Z,1011.10
2019-01-08T03:09:08.672Z,1011.06
2019-01-08T03:10:08.662Z,1011.04
2019-01-08T03:11:08.650Z,1010.98
2019-01-08T03:12:08.634Z,1011.00
2019-01-08T03:13:08.646Z,1010.95
2019-01-08T03:14:08.625Z,1010.93
2019-01-08T03:15:08.606Z,1010.99
2019-01-08T03:16:08.592Z,1010.98
2019-01-08T03:17:08.579Z,1010.97
2019-01-08T03:18:08.605Z,1011.02
2019-01-08T03:19:08.557Z,1010.99
2019-01-08T03:20:08.546Z,1010.93
2019-01-08T03:21:08.541Z,1010.95
2019-01-08T03:22:08.527Z,1010.92
2019-01-08T03:23:08.512Z,1010.96
2019-01-08T03:24:08.528Z,1010.94
2019-01-08T03:25:08.491Z,1010.94
2019-01-08T03:26:08.484Z,1010.92
2019-01-08T03:27:08.472Z,1010.90
2019-01-08T03:28:08.458Z,1010.88
2019-01-08T03:29:08.471Z,1010.89
2019-01-08T03:30:08.440Z,1010.89
2019-01-08T03:31:08.428Z,1010.92
2019-01-08T03:32:08.418Z,1010.88
2019-01-08T03:33:08.406Z,1010.89
2019-01-08T03:34:08.415Z,1010.83
2019-01-08T03:35:08.403Z,1010.92
2019-01-08T03:36:08.371Z,1010.86
2019-01-08T03:37:08.361Z,1010.79
2019-01-08T03:38:08.350Z,1010.78
2019-01-08T03:39:08.377Z,1010.75
2019-01-08T03:40:08.327Z,1010.79
2019-01-08T03:41:08.320Z,1010.74
2019-01-08T03:42:08.304Z,1010.69
2019-01-08T03:43:08.295Z,1010.72
2019-01-08T03:44:08.282Z,1010.72
2019-01-08T03:45:08.300Z,1010.67
2019-01-08T03:46:08.265Z,1010.63
2019-01-08T03:47:08.250Z,1010.64
2019-01-08T03:48:08.239Z,1010.64
2019-01-08T03:49:08.227Z,1010.67
2019-01-08T03:50:08.239Z,1010.64
2019-01-08T03:51:08.207Z,1010.64
2019-01-08T03:52:08.195Z,1010.70
2019-01-08T03:53:08.185Z,1010.66
2019-01-08T03:54:08.204Z,1010.65
2019-01-08T03:55:08.185Z,1010.62
2019-01-08T03:56:08.152Z,1010.56
2019-01-08T03:57:08.147Z,1010.59
2019-01-08T03:58:08.130Z,1010.53
2019-01-08T03:59:08.118Z,1010.56
2019-01-08T04:00:08.129Z,1010.47
2019-01-08T04:01:08.095Z,1010.50
2019-01-08T04:02:08.098Z,1010.45
2019-01-08T04:03:08.074Z,1010.51
2019-01-08T04:04:08.064Z,1010.46
2019-01-08T04:05:08.052Z,1010.47
2019-01-08T04:06:08.064Z,1010.48
2019-01-08T04:07:08.032Z,1010.46
2019-01-08T04:08:08.019Z,1010.42
2019-01-08T04:09:08.015Z,1010.46
2019-01-08T04:10:07.999Z,1010.44
2019-01-08T04:11:08.009Z,1010.46
2019-01-08T04:12:07.977Z,1010.42
2019-01-08T04:13:07.964Z,1010.46
2019-01-08T04:14:07.952Z,1010.43
2019-01-08T04:15:07.944Z,1010.37
2019-01-08T04:16:07.993Z,1010.39
2019-01-08T04:17:07.923Z,1010.38
2019-01-08T04:18:07.922Z,1010.39
2019-01-08T04:19:07.917Z,1010.32
2019-01-08T04:20:07.887Z,1010.33
2019-01-08T04:21:07.899Z,1010.40
2019-01-08T04:22:07.866Z,1010.45
2019-01-08T04:23:07.854Z,1010.33
2019-01-08T04:24:07.844Z,1010.27
2019-01-08T04:25:07.836Z,1010.30
2019-01-08T04:26:07.845Z,1010.23
2019-01-08T04:27:07.836Z,1010.28
2019-01-08T04:28:07.822Z,1010.24
2019-01-08T04:29:07.791Z,1010.20
2019-01-08T04:30:08.072Z,1010.21
2019-01-08T04:31:07.791Z,1010.22
2019-01-08T04:32:07.791Z,1010.22
2019-01-08T04:33:07.747Z,1010.24
2019-01-08T04:34:07.735Z,1010.22
2019-01-08T04:35:07.724Z,1010.17
2019-01-08T04:36:07.748Z,1010.15
2019-01-08T04:37:07.718Z,1010.15
2019-01-08T04:38:07.693Z,1010.21
2019-01-08T04:39:07.678Z,1010.07
2019-01-08T04:40:07.668Z,1010.11
2019-01-08T04:41:07.661Z,1010.12
2019-01-08T04:42:07.671Z,1010.14
2019-01-08T04:43:07.636Z,1010.00
2019-01-08T04:44:07.627Z,1010.00
2019-01-08T04:45:07.614Z,1010.10
2019-01-08T04:46:07.605Z,1010.06
2019-01-08T04:47:07.626Z,1010.00
2019-01-08T04:48:07.580Z,1009.98
2019-01-08T04:49:07.569Z,1010.00
2019-01-08T04:50:07.564Z,1010.01
2019-01-08T04:51:07.556Z,1010.00
2019-01-08T04:52:07.573Z,1009.98
2019-01-08T04:53:07.527Z,1009.96
2019-01-08T04:54:07.515Z,1010.01
2019-01-08T04:55:07.533Z,1009.97
2019-01-08T04:56:07.498Z,1009.92
2019-01-08T04:57:07.501Z,1009.90
2019-01-08T04:58:07.498Z,1009.88
2019-01-08T04:59:07.461Z,1009.91
2019-01-08T05:00:07.449Z,1009.85
2019-01-08T05:01:07.444Z,1009.81
2019-01-08T05:02:07.438Z,1009.83
2019-01-08T05:03:07.457Z,1009.79
2019-01-08T05:04:07.405Z,1009.74
2019-01-08T05:05:07.395Z,1009.79
2019-01-08T05:06:07.388Z,1009.77
2019-01-08T05:07:07.374Z,1009.76
2019-01-08T05:08:07.388Z,1009.65
2019-01-08T05:09:07.356Z,1009.72
2019-01-08T05:10:07.342Z,1009.77
2019-01-08T05:11:07.331Z,1009.70
2019-01-08T05:12:07.321Z,1009.76
2019-01-08T05:13:07.333Z,1009.68
2019-01-08T05:14:07.308Z,1009.67
2019-01-08T05:15:07.286Z,1009.69
2019-01-08T05:16:07.273Z,1009.74
2019-01-08T05:17:07.266Z,1009.71
2019-01-08T05:18:07.272Z,1009.65
2019-01-08T05:19:07.248Z,1009.68
2019-01-08T05:20:07.230Z,1009.64
2019-01-08T05:21:07.221Z,1009.63
2019-01-08T05:22:07.209Z,1009.61
2019-01-08T05:23:07.219Z,1009.58
2019-01-08T05:24:07.187Z,1009.64
2019-01-08T05:25:07.179Z,1009.60
2019-01-08T05:26:07.167Z,1009.57
2019-01-08T05:27:07.153Z,1009.62
2019-01-08T05:28:07.171Z,1009.54
2019-01-08T05:29:07.132Z,1009.52
2019-01-08T05:30:08.205Z,1009.55
2019-01-08T05:31:07.108Z,1009.51
2019-01-08T05:32:07.107Z,1009.53
2019-01-08T05:33:07.294Z,1009.50
2019-01-08T05:34:07.082Z,1009.49
2019-01-08T05:35:07.083Z,1009.52
2019-01-08T05:36:07.054Z,1009.47
2019-01-08T05:37:07.046Z,1009.49
2019-01-08T05:38:07.034Z,1009.44
2019-01-08T05:39:07.043Z,1009.47
2019-01-08T05:40:07.009Z,1009.37
2019-01-08T05:41:06.999Z,1009.40
2019-01-08T05:42:07.043Z,1009.48
2019-01-08T05:43:06.999Z,1009.38
2019-01-08T05:44:06.988Z,1009.44
2019-01-08T05:45:06.954Z,1009.37
2019-01-08T05:46:06.951Z,1009.39
2019-01-08T05:47:06.933Z,1009.29
2019-01-08T05:48:06.930Z,1009.36
2019-01-08T05:49:06.935Z,1009.34
2019-01-08T05:50:06.900Z,1009.30
2019-01-08T05:51:06.891Z,1009.25
2019-01-08T05:52:06.882Z,1009.27
2019-01-08T05:53:06.868Z,1009.21
2019-01-08T05:54:06.880Z,1009.25
2019-01-08T05:55:06.862Z,1009.20
2019-01-08T05:56:06.833Z,1009.16
2019-01-08T05:57:06.823Z,1009.13
2019-01-08T05:58:06.812Z,1009.14
2019-01-08T05:59:06.963Z,1009.11
2019-01-08T06:00:06.792Z,1009.11
2019-01-08T06:01:06.779Z,1009.16
2019-01-08T06:02:06.772Z,1009.10
2019-01-08T06:03:06.770Z,1009.08
2019-01-08T06:04:06.746Z,1009.01
2019-01-08T06:05:06.765Z,1008.95
2019-01-08T06:06:06.728Z,1008.94
2019-01-08T06:07:06.717Z,1008.98
2019-01-08T06:08:06.702Z,1009.08
2019-01-08T06:09:06.775Z,1009.02
2019-01-08T06:10:06.709Z,1008.92
2019-01-08T06:11:06.679Z,1009.05
2019-01-08T06:12:06.659Z,1008.99
2019-01-08T06:13:06.647Z,1009.02
2019-01-08T06:14:06.637Z,1008.94
2019-01-08T06:15:06.653Z,1009.00
2019-01-08T06:16:06.615Z,1008.88
2019-01-08T06:17:06.623Z,1008.94
2019-01-08T06:18:06.595Z,1008.92
2019-01-08T06:19:06.585Z,1008.96
2019-01-08T06:20:06.602Z,1008.93
2019-01-08T06:21:06.568Z,1009.05
2019-01-08T06:22:06.551Z,1009.01
2019-01-08T06:23:06.538Z,1009.00
2019-01-08T06:24:06.528Z,1009.06
2019-01-08T06:25:06.539Z,1008.92
2019-01-08T06:26:06.505Z,1008.99
2019-01-08T06:27:06.497Z,1009.00
2019-01-08T06:28:06.486Z,1008.93
2019-01-08T06:29:06.476Z,1008.95
2019-01-08T06:30:06.483Z,1008.96
2019-01-08T06:31:06.457Z,1008.96
2019-01-08T06:32:06.443Z,1008.97
2019-01-08T06:33:57.624Z,1008.93
2019-01-08T06:34:57.608Z,1008.94
2019-01-08T06:35:57.652Z,1008.89
2019-01-08T06:36:57.594Z,1008.90
2019-01-08T06:38:08.290Z,1008.78
2019-01-08T06:38:57.565Z,1008.78
2019-01-08T06:39:57.554Z,1008.91
2019-01-08T06:40:58.054Z,1008.90
2019-01-08T06:41:57.535Z,1008.80
2019-01-08T06:42:57.520Z,1008.85
2019-01-08T06:43:57.508Z,1008.85
2019-01-08T06:44:57.497Z,1008.89
2019-01-08T06:45:57.522Z,1008.77
2019-01-08T06:46:57.475Z,1008.75
2019-01-08T06:47:57.466Z,1008.73
2019-01-08T06:48:57.456Z,1008.79
2019-01-08T06:49:57.450Z,1008.77
2019-01-08T06:50:57.433Z,1008.69
2019-01-08T06:51:57.442Z,1008.73
2019-01-08T06:52:57.410Z,1008.70
2019-01-08T06:53:57.397Z,1008.69
2019-01-08T06:54:57.389Z,1008.73
2019-01-08T06:55:57.377Z,1008.73
2019-01-08T06:56:57.392Z,1008.74
2019-01-08T06:57:57.353Z,1008.63
2019-01-08T06:58:57.345Z,1008.66
2019-01-08T06:59:57.343Z,1008.66
2019-01-08T07:00:57.320Z,1008.67
2019-01-08T07:01:57.331Z,1008.56
2019-01-08T07:02:57.312Z,1008.51
2019-01-08T07:03:57.286Z,1008.53
2019-01-08T07:04:57.275Z,1008.53
2019-01-08T07:05:57.270Z,1008.54
2019-01-08T07:06:57.279Z,1008.36
2019-01-08T07:07:57.242Z,1008.40
2019-01-08T07:08:57.238Z,1008.34
2019-01-08T07:09:57.220Z,1008.35
2019-01-08T07:10:57.215Z,1008.36
2019-01-08T07:11:57.226Z,1008.35
2019-01-08T07:12:57.186Z,1008.36
2019-01-08T07:13:57.177Z,1008.34
2019-01-08T07:14:57.165Z,1008.39
2019-01-08T07:15:57.163Z,1008.35
2019-01-08T07:16:57.173Z,1008.43
2019-01-08T07:17:57.131Z,1008.53
2019-01-08T07:18:57.122Z,1008.51
2019-01-08T07:19:57.111Z,1008.57
2019-01-08T07:20:57.103Z,1008.50
2019-01-08T07:21:57.086Z,1008.47
2019-01-08T07:22:57.097Z,1008.41
2019-01-08T07:23:57.066Z,1008.51
2019-01-08T07:24:57.057Z,1008.45
2019-01-08T07:25:57.048Z,1008.50
2019-01-08T07:26:57.035Z,1008.33
2019-01-08T07:27:57.043Z,1008.33
2019-01-08T07:28:57.009Z,1008.34
2019-01-08T07:29:56.998Z,1008.39
2019-01-08T07:30:56.986Z,1008.46
2019-01-08T07:31:56.979Z,1008.34
2019-01-08T07:32:57.000Z,1008.27
2019-01-08T07:33:56.955Z,1008.36
2019-01-08T07:34:56.942Z,1008.31
2019-01-08T07:35:56.938Z,1008.41
2019-01-08T07:36:56.920Z,1008.48
2019-01-08T07:37:56.934Z,1008.41
2019-01-08T07:38:56.900Z,1008.39
2019-01-08T07:39:56.890Z,1008.35
2019-01-08T07:40:56.875Z,1008.39
2019-01-08T07:41:56.869Z,1008.45
2019-01-08T07:42:56.885Z,1008.38
2019-01-08T07:43:56.843Z,1008.33
2019-01-08T07:44:56.835Z,1008.45
2019-01-08T07:45:56.825Z,1008.45
2019-01-08T07:46:56.812Z,1008.44
2019-01-08T07:47:56.977Z,1008.60
2019-01-08T07:48:56.811Z,1008.40
2019-01-08T07:49:56.787Z,1008.37
2019-01-08T07:50:56.768Z,1008.36
2019-01-08T07:51:56.756Z,1008.46
2019-01-08T07:52:56.742Z,1008.43
2019-01-08T07:53:56.752Z,1008.54
2019-01-08T07:54:56.734Z,1008.33
2019-01-08T07:55:56.708Z,1008.32
2019-01-08T07:56:56.701Z,1008.36
2019-01-08T07:57:56.688Z,1008.40
2019-01-08T07:58:56.698Z,1008.35
2019-01-08T07:59:56.702Z,1008.31
2019-01-08T08:00:56.660Z,1008.25
2019-01-08T08:01:56.644Z,1008.35
2019-01-08T08:02:56.634Z,1008.36
2019-01-08T08:03:56.642Z,1008.38
2019-01-08T08:04:56.636Z,1008.28
2019-01-08T08:05:56.597Z,1008.43
2019-01-08T08:06:56.586Z,1008.34
2019-01-08T08:07:56.582Z,1008.31
2019-01-08T08:08:56.598Z,1008.34
2019-01-08T08:09:56.557Z,1008.48
2019-01-08T08:10:56.543Z,1008.19
2019-01-08T08:11:56.532Z,1008.51
2019-01-08T08:12:56.521Z,1008.35
2019-01-08T08:13:56.578Z,1008.33
2019-01-08T08:14:56.529Z,1008.36
2019-01-08T08:15:56.487Z,1008.33
2019-01-08T08:16:56.480Z,1008.44
2019-01-08T08:17:56.466Z,1008.47
2019-01-08T08:18:56.455Z,1008.43
2019-01-08T08:19:56.478Z,1008.50
2019-01-08T08:20:56.477Z,1008.40
2019-01-08T08:21:56.423Z,1008.69
2019-01-08T08:22:56.410Z,1008.35
2019-01-08T08:23:56.397Z,1008.41
2019-01-08T08:24:56.416Z,1008.46
2019-01-08T08:25:56.378Z,1008.52
2019-01-08T08:26:56.418Z,1008.55
2019-01-08T08:27:56.357Z,1008.49
2019-01-08T08:28:56.342Z,1008.46
2019-01-08T08:29:56.353Z,1008.45
2019-01-08T08:30:58.796Z,1008.48
2019-01-08T08:31:56.313Z,1008.39
2019-01-08T08:32:56.298Z,1008.46
2019-01-08T08:33:56.288Z,1008.41
2019-01-08T08:34:56.298Z,1008.46
2019-01-08T08:35:56.266Z,1008.37
2019-01-08T08:36:56.256Z,1008.40
2019-01-08T08:37:56.262Z,1008.42
2019-01-08T08:38:56.231Z,1008.40
2019-01-08T08:39:56.249Z,1008.58
2019-01-08T08:40:56.209Z,1008.55
2019-01-08T08:41:56.223Z,1008.40
2019-01-08T08:42:56.193Z,1008.37
2019-01-08T08:43:56.201Z,1008.41
2019-01-08T08:44:56.317Z,1008.51
2019-01-08T08:45:56.156Z,1008.43
2019-01-08T08:46:56.143Z,1008.40
2019-01-08T08:47:56.135Z,1008.38
2019-01-08T08:48:56.119Z,1008.60
2019-01-08T08:49:56.150Z,1008.45
2019-01-08T08:50:56.102Z,1008.50
2019-01-08T08:51:56.088Z,1008.45
2019-01-08T08:52:56.119Z,1008.39
2019-01-08T08:53:56.065Z,1008.47
2019-01-08T08:54:56.054Z,1008.44
2019-01-08T08:55:56.063Z,1008.44
2019-01-08T08:56:56.031Z,1008.40
2019-01-08T08:57:56.021Z,1008.42
2019-01-08T08:58:56.094Z,1008.44
2019-01-08T08:59:56.004Z,1008.35
2019-01-08T09:00:56.125Z,1008.39
2019-01-08T09:01:55.976Z,1008.43
2019-01-08T09:02:55.965Z,1008.40
2019-01-08T09:03:55.955Z,1008.45
2019-01-08T09:04:56.155Z,1008.51
2019-01-08T09:05:55.957Z,1008.43
2019-01-08T09:06:55.920Z,1008.43
2019-01-08T09:07:55.908Z,1008.46
2019-01-08T09:08:55.898Z,1008.48
2019-01-08T09:09:55.888Z,1008.32
2019-01-08T09:10:55.897Z,1008.31
2019-01-08T09:11:55.867Z,1008.33
2019-01-08T09:12:57.513Z,1008.31
2019-01-08T09:13:55.845Z,1008.34
2019-01-08T09:14:55.832Z,1008.48
2019-01-08T09:15:55.847Z,1008.41
2019-01-08T09:16:55.815Z,1008.38
2019-01-08T09:17:55.801Z,1008.37
2019-01-08T09:18:55.788Z,1008.35
2019-01-08T09:19:55.778Z,1008.33
2019-01-08T09:20:55.788Z,1008.18
2019-01-08T09:21:55.755Z,1008.12
2019-01-08T09:22:55.743Z,1008.19
2019-01-08T09:23:56.169Z,1008.23
2019-01-08T09:24:55.724Z,1008.20
2019-01-08T09:25:55.731Z,1008.22
2019-01-08T09:26:55.701Z,1008.23
2019-01-08T09:27:55.692Z,1008.18
2019-01-08T09:28:55.680Z,1008.20
2019-01-08T09:29:55.667Z,1008.19
2019-01-08T09:30:55.677Z,1008.23
2019-01-08T09:31:55.643Z,1008.08
2019-01-08T09:32:55.634Z,1008.13
2019-01-08T09:33:55.621Z,1008.15
2019-01-08T09:34:55.613Z,1008.13
2019-01-08T09:35:55.622Z,1008.25
2019-01-08T09:36:55.587Z,1008.10
2019-01-08T09:37:55.577Z,1008.18
2019-01-08T09:38:55.567Z,1008.19
2019-01-08T09:39:55.556Z,1008.20
2019-01-08T09:40:55.579Z,1008.22
2019-01-08T09:41:55.531Z,1008.22
2019-01-08T09:42:55.520Z,1008.22
2019-01-08T09:43:55.509Z,1008.16
2019-01-08T09:44:55.498Z,1008.18
2019-01-08T09:45:55.489Z,1008.08
2019-01-08T09:46:55.497Z,1008.17
2019-01-08T09:47:55.467Z,1008.18
2019-01-08T09:48:55.457Z,1008.08
2019-01-08T09:49:55.446Z,1008.09
2019-01-08T09:50:55.432Z,1008.14
2019-01-08T09:51:55.456Z,1008.08
2019-01-08T09:52:55.412Z,1008.13
2019-01-08T09:53:55.400Z,1008.05
2019-01-08T09:54:55.389Z,1008.19
2019-01-08T09:55:55.379Z,1008.20
2019-01-08T09:56:55.389Z,1008.15
2019-01-08T09:57:55.354Z,1008.12
2019-01-08T09:58:55.352Z,1008.03
2019-01-08T09:59:55.332Z,1008.11
2019-01-08T10:00:55.320Z,1008.10
2019-01-08T10:01:55.331Z,1008.15
2019-01-08T10:02:55.300Z,1008.05
2019-01-08T10:03:55.289Z,1008.07
2019-01-08T10:04:55.276Z,1008.10
2019-01-08T10:05:56.528Z,1008.03
2019-01-08T10:06:55.277Z,1008.03
2019-01-08T10:07:55.242Z,1007.92
2019-01-08T10:08:55.236Z,1007.93
2019-01-08T10:09:55.221Z,1008.02
2019-01-08T10:10:55.215Z,1008.02
2019-01-08T10:11:55.226Z,1007.99
2019-01-08T10:12:55.188Z,1007.90
2019-01-08T10:13:55.210Z,1007.93
2019-01-08T10:14:55.168Z,1007.95
2019-01-08T10:15:55.154Z,1007.91
2019-01-08T10:16:55.165Z,1007.95
2019-01-08T10:17:55.142Z,1007.91
2019-01-08T10:18:55.124Z,1007.94
2019-01-08T10:19:55.111Z,1007.90
2019-01-08T10:20:55.100Z,1007.92
2019-01-08T10:21:55.111Z,1007.88
2019-01-08T10:22:55.076Z,1007.88
2019-01-08T10:23:55.069Z,1007.88
2019-01-08T10:24:55.054Z,1007.87
2019-01-08T10:25:55.043Z,1007.81
2019-01-08T10:26:55.059Z,1007.89
2019-01-08T10:27:55.021Z,1007.90
2019-01-08T10:28:55.011Z,1007.83
2019-01-08T10:29:57.001Z,1007.79
2019-01-08T10:30:54.988Z,1007.89
2019-01-08T10:31:55.004Z,1007.87
2019-01-08T10:32:54.972Z,1007.72
2019-01-08T10:33:54.962Z,1007.87
2019-01-08T10:34:54.944Z,1007.94
2019-01-08T10:35:54.931Z,1007.75
2019-01-08T10:36:54.965Z,1007.73
2019-01-08T10:37:54.909Z,1007.66
2019-01-08T10:38:54.899Z,1007.80
2019-01-08T10:39:54.888Z,1007.79
2019-01-08T10:40:54.889Z,1007.68
2019-01-08T10:41:54.865Z,1007.77
2019-01-08T10:42:54.876Z,1007.78
2019-01-08T10:43:54.843Z,1007.73
2019-01-08T10:44:54.834Z,1007.83
2019-01-08T10:45:54.822Z,1007.80
2019-01-08T10:46:54.817Z,1007.61
2019-01-08T10:47:54.833Z,1007.74
2019-01-08T10:48:54.790Z,1007.61
2019-01-08T10:49:54.778Z,1007.58
2019-01-08T10:50:54.768Z,1007.67
2019-01-08T10:51:54.760Z,1007.62
2019-01-08T10:52:54.771Z,1007.70
2019-01-08T10:53:54.733Z,1007.64
2019-01-08T10:54:54.721Z,1007.52
2019-01-08T10:55:54.712Z,1007.71
2019-01-08T10:56:54.700Z,1007.59
2019-01-08T10:57:54.712Z,1007.51
2019-01-08T10:58:54.678Z,1007.66
2019-01-08T10:59:54.667Z,1007.64
2019-01-08T11:00:54.654Z,1007.57
2019-01-08T11:01:54.644Z,1007.62
2019-01-08T11:02:54.658Z,1007.63
2019-01-08T11:03:54.622Z,1007.48
2019-01-08T11:04:54.613Z,1007.60
2019-01-08T11:05:54.612Z,1007.52
2019-01-08T11:06:54.589Z,1007.58
2019-01-08T11:07:54.601Z,1007.51
2019-01-08T11:08:54.566Z,1007.51
2019-01-08T11:09:54.562Z,1007.66
2019-01-08T11:10:54.544Z,1007.63
2019-01-08T11:11:54.532Z,1007.51
2019-01-08T11:12:54.545Z,1007.54
2019-01-08T11:13:54.510Z,1007.57
2019-01-08T11:14:54.521Z,1007.50
2019-01-08T11:15:54.487Z,1007.47
2019-01-08T11:16:54.480Z,1007.40
2019-01-08T11:17:54.488Z,1007.40
2019-01-08T11:18:54.454Z,1007.36
2019-01-08T11:19:54.446Z,1007.49
2019-01-08T11:20:54.433Z,1007.50
2019-01-08T11:21:54.421Z,1007.39
2019-01-08T11:22:54.433Z,1007.46
2019-01-08T11:23:54.403Z,1007.39
2019-01-08T11:24:54.391Z,1007.38
2019-01-08T11:25:54.384Z,1007.33
2019-01-08T11:26:54.368Z,1007.30
2019-01-08T11:27:54.379Z,1007.39
2019-01-08T11:28:54.343Z,1007.26
2019-01-08T11:29:54.334Z,1007.29
2019-01-08T11:30:54.322Z,1007.30
2019-01-08T11:31:54.311Z,1007.26
2019-01-08T11:32:54.862Z,1007.28
2019-01-08T11:33:54.293Z,1007.24
2019-01-08T11:34:54.278Z,1007.27
2019-01-08T11:35:54.268Z,1007.26
2019-01-08T11:36:54.260Z,1007.24
2019-01-08T11:37:54.247Z,1007.15
2019-01-08T11:38:54.256Z,1007.29
2019-01-08T11:39:54.227Z,1007.23
2019-01-08T11:40:54.210Z,1007.16
2019-01-08T11:41:54.204Z,1007.12
2019-01-08T11:42:54.191Z,1007.15
2019-01-08T11:43:54.213Z,1007.18
2019-01-08T11:44:54.166Z,1007.21
2019-01-08T11:45:54.156Z,1007.12
2019-01-08T11:46:54.144Z,1007.08
2019-01-08T11:47:54.215Z,1007.19
2019-01-08T11:48:54.145Z,1007.10
2019-01-08T11:49:54.111Z,1007.08
2019-01-08T11:50:54.104Z,1007.09
2019-01-08T11:51:54.089Z,1007.23
2019-01-08T11:52:54.077Z,1007.18
2019-01-08T11:53:54.089Z,1007.14
2019-01-08T11:54:54.056Z,1007.18
2019-01-08T11:55:54.044Z,1007.11
2019-01-08T11:56:54.033Z,1007.22
2019-01-08T11:57:54.021Z,1007.10
2019-01-08T11:58:54.034Z,1007.14
2019-01-08T11:59:54.000Z,1007.06
2019-01-08T12:00:53.993Z,1007.21
2019-01-08T12:01:57.517Z,1007.15
2019-01-08T12:02:53.968Z,1007.11
2019-01-08T12:03:53.978Z,1007.05
2019-01-08T12:04:53.947Z,1007.07
2019-01-08T12:05:53.936Z,1007.07